createdAt,value
2023-05-22T00:14:14.340Z,75.20
2023-05-22T00:16:48.601Z,99.90
2023-05-22T00:19:23.449Z,99.90
2023-05-22T00:21:55.593Z,99.90
2023-05-22T00:24:27.767Z,99.90
2023-05-22T00:57:38.614Z,99.90
2023-05-22T01:00:11.572Z,99.90
2023-05-22T01:02:44.489Z,99.90
2023-05-22T01:05:18.405Z,99.90
2023-05-22T01:07:50.674Z,99.90
2023-05-22T01:10:23.869Z,99.90
2023-05-22T01:13:00.728Z,99.90
2023-05-22T01:15:39.927Z,99.90
2023-05-22T01:18:31.374Z,99.90
2023-05-22T01:21:05.257Z,99.90
2023-05-22T01:24:11.892Z,99.90
2023-05-22T01:27:18.798Z,99.90
2023-05-22T01:30:17.298Z,99.90
2023-05-22T01:32:50.335Z,99.90
2023-05-22T01:35:23.625Z,99.90
2023-05-22T01:37:57.227Z,99.90
2023-05-22T01:40:29.952Z,99.90
2023-05-22T01:43:02.605Z,99.90
2023-05-22T01:45:35.158Z,99.90
2023-05-22T01:48:07.833Z,99.90
2023-05-22T01:50:41.185Z,99.90
2023-05-22T01:53:33.679Z,99.90
2023-05-22T01:56:12.717Z,99.90
2023-05-22T01:59:01.029Z,99.90
2023-05-22T02:01:37.793Z,99.90
2023-05-22T02:04:11.377Z,99.90
2023-05-22T02:06:44.642Z,99.90
2023-05-22T02:09:18.404Z,99.90
2023-05-22T02:11:50.744Z,99.90
2023-05-22T02:14:23.056Z,99.90
2023-05-22T02:16:56.928Z,99.90
2023-05-22T02:19:29.458Z,99.90
2023-05-22T02:22:02.045Z,99.90
2023-05-22T02:24:37.118Z,99.90
2023-05-22T02:27:09.986Z,99.90
2023-05-22T02:29:42.856Z,99.90
2023-05-22T02:32:15.229Z,99.90
2023-05-22T02:34:48.531Z,99.90
2023-05-22T02:37:20.860Z,99.90
2023-05-22T02:39:53.006Z,99.90
2023-05-22T02:42:25.571Z,99.90
2023-05-22T02:44:58.008Z,99.90
2023-05-22T02:47:30.317Z,99.90
2023-05-22T02:50:03.928Z,99.90
2023-05-22T02:52:39.455Z,99.90
2023-05-22T02:55:11.656Z,99.90
2023-05-22T02:57:43.788Z,99.90
2023-05-22T03:00:17.088Z,99.90
2023-05-22T03:02:49.517Z,99.90
2023-05-22T03:05:21.764Z,99.90
2023-05-22T03:07:53.895Z,99.90
2023-05-22T03:10:26.139Z,99.90
2023-05-22T03:12:58.732Z,99.90
2023-05-22T03:15:31.015Z,99.90
2023-05-22T03:18:09.801Z,99.90
2023-05-22T03:20:44.222Z,99.90
2023-05-22T03:23:16.704Z,99.90
2023-05-22T03:25:49.813Z,99.90
2023-05-22T03:28:22.110Z,99.90
2023-05-22T03:30:55.389Z,99.90
2023-05-22T03:33:32.211Z,99.90
2023-05-22T03:36:05.206Z,99.90
2023-05-22T03:38:37.396Z,99.90
2023-05-22T03:41:09.686Z,99.90
2023-05-22T03:43:44.786Z,99.90
2023-05-22T03:46:17.540Z,99.90
2023-05-22T03:48:50.033Z,99.90
2023-05-22T03:51:22.235Z,99.90
2023-05-22T03:53:54.368Z,99.90
2023-05-22T03:56:27.126Z,99.90
2023-05-22T03:58:59.652Z,99.90
2023-05-22T04:01:32.648Z,99.90
2023-05-22T04:04:06.097Z,99.90
2023-05-22T04:06:43.497Z,99.90
2023-05-22T04:09:18.251Z,99.90
2023-05-22T04:11:50.819Z,99.90
2023-05-22T04:14:22.970Z,99.90
2023-05-22T04:16:55.315Z,99.90
2023-05-22T04:19:28.423Z,99.90
2023-05-22T04:22:01.158Z,99.90
2023-05-22T04:24:33.421Z,99.90
2023-05-22T04:27:06.770Z,99.90
2023-05-22T04:29:41.784Z,99.90
2023-05-22T04:32:18.215Z,99.90
2023-05-22T04:34:51.270Z,99.90
2023-05-22T04:37:24.986Z,99.90
2023-05-22T04:39:58.465Z,99.90
2023-05-22T04:42:31.110Z,99.90
2023-05-22T04:45:03.688Z,99.90
2023-05-22T04:47:38.496Z,99.90
2023-05-22T04:50:14.543Z,99.90
2023-05-22T04:52:47.701Z,99.90
2023-05-22T04:55:20.567Z,99.90
2023-05-22T04:57:53.823Z,99.90
2023-05-22T05:00:28.882Z,99.90
2023-05-22T05:03:03.119Z,99.90
2023-05-22T05:05:35.678Z,99.90
2023-05-22T05:08:08.044Z,99.90
2023-05-22T05:10:40.858Z,99.90
2023-05-22T05:13:13.560Z,99.90
2023-05-22T05:15:45.938Z,99.90
2023-05-22T05:18:19.764Z,99.90
2023-05-22T05:20:51.971Z,99.90
2023-05-22T05:23:24.647Z,99.90
2023-05-22T05:25:57.104Z,99.90
2023-05-22T05:28:29.664Z,99.90
2023-05-22T05:31:02.436Z,99.90
2023-05-22T05:33:53.316Z,99.90
2023-05-22T05:36:46.537Z,99.90
2023-05-22T05:39:19.001Z,99.90
2023-05-22T05:41:51.257Z,99.90
2023-05-22T05:44:24.105Z,99.90
2023-05-22T05:46:57.941Z,99.90
2023-05-22T05:49:33.064Z,99.90
2023-05-22T05:52:08.140Z,99.90
2023-05-22T05:54:46.782Z,99.90
2023-05-22T05:57:22.116Z,99.90
2023-05-22T05:59:55.504Z,99.90
2023-05-22T06:02:48.223Z,99.90
2023-05-22T06:05:32.979Z,99.90
2023-05-22T06:08:16.831Z,99.90
2023-05-22T06:10:49.582Z,99.90
2023-05-22T06:13:37.048Z,99.90
2023-05-22T06:16:09.400Z,99.90
2023-05-22T06:18:41.560Z,99.90
2023-05-22T06:21:13.802Z,99.90
2023-05-22T06:23:46.448Z,99.90
2023-05-22T06:26:19.138Z,99.90
2023-05-22T06:28:52.339Z,99.90
2023-05-22T06:31:26.580Z,98.10
2023-05-22T06:34:02.039Z,96.80
2023-05-22T06:36:35.430Z,96.20
2023-05-22T06:39:08.821Z,96.40
2023-05-22T06:42:10.714Z,95.20
2023-05-22T06:45:01.561Z,95.00
2023-05-22T06:47:42.930Z,94.80
2023-05-22T06:50:15.368Z,93.80
2023-05-22T06:52:48.261Z,92.80
2023-05-22T06:55:21.621Z,92.90
2023-05-22T06:58:06.855Z,93.10
2023-05-22T07:00:40.550Z,92.00
2023-05-22T07:03:21.522Z,92.20
2023-05-22T07:06:12.570Z,91.20
2023-05-22T07:08:45.074Z,91.70
2023-05-22T07:11:17.221Z,91.40
2023-05-22T07:13:50.015Z,92.00
2023-05-22T07:16:23.437Z,91.70
2023-05-22T07:18:55.727Z,91.70
2023-05-22T07:21:30.459Z,91.60
2023-05-22T07:24:08.422Z,91.30
2023-05-22T07:26:46.684Z,91.60
2023-05-22T07:29:20.787Z,90.90
2023-05-22T07:31:56.890Z,91.10
2023-05-22T07:34:34.632Z,90.90
2023-05-22T07:37:13.935Z,90.30
2023-05-22T07:39:47.706Z,90.40
2023-05-22T07:42:21.899Z,90.60
2023-05-22T07:44:58.790Z,90.60
2023-05-22T07:47:31.381Z,89.40
2023-05-22T07:50:05.383Z,89.00
2023-05-22T07:52:40.245Z,90.00
2023-05-22T07:55:12.806Z,87.30
2023-05-22T07:57:47.980Z,88.50
2023-05-22T08:00:29.138Z,88.30
2023-05-22T08:03:01.454Z,87.50
2023-05-22T08:05:33.884Z,87.30
2023-05-22T08:08:06.057Z,86.60
2023-05-22T08:13:13.601Z,87.40
2023-05-22T08:15:45.833Z,86.00
2023-05-22T08:18:18.173Z,86.70
2023-05-22T08:20:54.371Z,85.40
2023-05-22T08:23:27.152Z,85.80
2023-05-22T08:25:59.355Z,86.80
2023-05-22T08:28:31.769Z,85.90
2023-05-22T08:31:07.026Z,85.60
2023-05-22T08:33:40.339Z,84.80
2023-05-22T08:36:13.391Z,85.40
2023-05-22T08:38:45.764Z,85.40
2023-05-22T08:41:17.969Z,85.30
2023-05-22T08:43:53.049Z,85.30
2023-05-22T08:46:26.722Z,83.80
2023-05-22T08:48:59.386Z,83.50
2023-05-22T08:51:34.525Z,83.90
2023-05-22T08:54:10.204Z,84.30
2023-05-22T08:56:53.101Z,83.40
2023-05-22T08:59:29.983Z,85.40
2023-05-22T09:02:06.658Z,83.90
2023-05-22T09:04:41.757Z,82.30
2023-05-22T09:07:14.703Z,82.30
2023-05-22T09:09:47.343Z,83.20
2023-05-22T09:12:19.780Z,83.50
2023-05-22T09:14:53.391Z,82.80
2023-05-22T09:17:26.895Z,83.20
2023-05-22T09:20:01.329Z,81.70
2023-05-22T09:22:40.800Z,81.60
2023-05-22T09:25:19.540Z,81.80
2023-05-22T09:27:51.881Z,82.70
2023-05-22T09:30:29.173Z,81.30
2023-05-22T09:33:01.583Z,81.20
2023-05-22T09:35:34.414Z,79.80
2023-05-22T09:38:06.759Z,78.80
2023-05-22T09:40:40.885Z,79.40
2023-05-22T09:43:18.189Z,79.70
2023-05-22T09:45:58.184Z,79.30
2023-05-22T09:48:36.731Z,79.30
2023-05-22T09:51:11.130Z,79.00
2023-05-22T09:53:44.463Z,79.10
2023-05-22T09:56:24.264Z,79.80
2023-05-22T09:59:06.346Z,78.10
2023-05-22T10:01:40.095Z,75.80
2023-05-22T10:04:17.295Z,74.50
2023-05-22T10:06:54.527Z,73.30
2023-05-22T10:09:32.314Z,74.40
2023-05-22T10:12:07.423Z,74.50
2023-05-22T10:14:40.082Z,73.30
2023-05-22T10:17:13.570Z,74.10
2023-05-22T10:19:47.197Z,73.00
2023-05-22T10:22:22.759Z,70.80
2023-05-22T10:24:55.643Z,70.50
2023-05-22T10:27:28.244Z,71.40
2023-05-22T10:30:22.226Z,70.30
2023-05-22T10:33:32.456Z,68.90
2023-05-22T10:36:08.872Z,66.90
2023-05-22T10:38:55.899Z,66.70
2023-05-22T10:44:02.931Z,63.80
2023-05-22T10:46:36.292Z,64.40
2023-05-22T10:49:09.097Z,65.30
2023-05-22T10:51:41.359Z,63.90
2023-05-22T10:54:14.084Z,64.30
2023-05-22T10:56:46.958Z,62.50
2023-05-22T10:59:33.622Z,62.00
2023-05-22T11:02:08.457Z,64.20
2023-05-22T11:04:41.864Z,63.50
2023-05-22T11:07:15.428Z,65.00
2023-05-22T11:09:48.806Z,64.20
2023-05-22T11:12:28.943Z,62.30
2023-05-22T11:15:10.883Z,63.20
2023-05-22T11:17:51.414Z,61.80
2023-05-22T11:20:30.930Z,62.00
2023-05-22T11:23:07.137Z,63.00
2023-05-22T11:25:41.653Z,61.40
2023-05-22T11:28:14.037Z,61.00
2023-05-22T11:30:47.762Z,59.80
2023-05-22T11:33:20.154Z,59.30
2023-05-22T11:35:54.644Z,59.90
2023-05-22T11:38:27.876Z,60.00
2023-05-22T11:41:00.071Z,60.70
2023-05-22T11:43:34.531Z,57.10
2023-05-22T11:46:09.166Z,56.50
2023-05-22T11:48:42.793Z,57.50
2023-05-22T11:51:18.896Z,58.30
2023-05-22T11:53:51.321Z,56.80
2023-05-22T11:56:23.600Z,56.70
2023-05-22T11:58:56.805Z,57.20
2023-05-22T12:01:28.999Z,55.70
2023-05-22T12:04:01.185Z,56.00
2023-05-22T12:06:33.756Z,56.00
2023-05-22T12:09:07.434Z,57.00
2023-05-22T12:11:39.885Z,57.80
2023-05-22T12:14:13.114Z,57.20
2023-05-22T12:16:45.880Z,57.10
2023-05-22T12:19:18.385Z,56.90
2023-05-22T12:21:51.394Z,55.70
2023-05-22T12:24:23.806Z,55.40
2023-05-22T12:26:56.733Z,56.20
2023-05-22T12:29:28.854Z,57.40
2023-05-22T12:32:11.137Z,57.40
2023-05-22T12:34:47.966Z,57.10
2023-05-22T12:37:28.357Z,58.20
2023-05-22T12:40:03.539Z,56.80
2023-05-22T12:42:37.200Z,57.90
2023-05-22T12:45:09.815Z,57.60
2023-05-22T12:47:42.202Z,57.40
2023-05-22T12:50:14.764Z,57.50
2023-05-22T12:52:46.940Z,56.90
2023-05-22T12:55:19.091Z,55.50
2023-05-22T12:57:51.413Z,55.80
2023-05-22T13:00:24.069Z,56.70
2023-05-22T13:02:56.629Z,54.60
2023-05-22T13:05:28.849Z,54.00
2023-05-22T13:08:01.084Z,54.20
2023-05-22T13:10:33.498Z,52.10
2023-05-22T13:13:05.796Z,52.90
2023-05-22T13:15:38.247Z,53.00
2023-05-22T13:18:12.096Z,51.60
2023-05-22T13:20:44.649Z,53.10
2023-05-22T13:23:16.933Z,51.90
2023-05-22T13:25:49.153Z,53.10
2023-05-22T13:28:21.520Z,51.40
2023-05-22T13:30:53.896Z,52.00
2023-05-22T13:33:26.866Z,50.30
2023-05-22T13:35:59.137Z,52.00
2023-05-22T13:38:31.265Z,51.90
2023-05-22T13:41:03.487Z,51.90
2023-05-22T13:43:35.857Z,53.30
2023-05-22T13:46:08.395Z,53.80
2023-05-22T13:48:41.006Z,53.90
2023-05-22T13:51:13.444Z,53.70
2023-05-22T13:53:47.974Z,53.60
2023-05-22T13:56:20.249Z,53.90
2023-05-22T13:58:53.234Z,54.10
2023-05-22T14:01:25.744Z,52.60
2023-05-22T14:03:58.143Z,53.00
2023-05-22T14:06:30.894Z,52.90
2023-05-22T14:09:06.190Z,51.80
2023-05-22T14:11:38.527Z,52.40
2023-05-22T14:14:11.299Z,52.00
2023-05-22T14:16:43.643Z,51.70
2023-05-22T14:19:17.734Z,51.10
2023-05-22T14:21:52.012Z,52.20
2023-05-22T14:24:24.580Z,51.60
2023-05-22T14:26:58.353Z,52.10
2023-05-22T14:29:31.241Z,51.20
2023-05-22T14:32:05.029Z,49.80
2023-05-22T14:34:37.356Z,50.70
2023-05-22T14:37:09.958Z,50.40
2023-05-22T14:39:42.505Z,50.20
2023-05-22T14:42:14.892Z,50.30
2023-05-22T14:44:47.170Z,50.90
2023-05-22T14:47:19.401Z,52.40
2023-05-22T14:49:52.493Z,52.50
2023-05-22T14:52:25.624Z,50.90
2023-05-22T14:54:58.301Z,49.80
2023-05-22T14:57:31.391Z,51.10
2023-05-22T15:00:06.785Z,49.50
2023-05-22T15:02:39.272Z,49.60
2023-05-22T15:05:12.158Z,51.40
2023-05-22T15:07:46.665Z,50.50
2023-05-22T15:10:20.406Z,50.90
2023-05-22T15:12:53.396Z,52.80
2023-05-22T15:15:25.821Z,53.70
2023-05-22T15:18:00.899Z,55.90
2023-05-22T15:20:33.776Z,56.00
2023-05-22T15:23:06.307Z,56.80
2023-05-22T15:25:38.839Z,57.90
2023-05-22T15:28:11.733Z,58.70
2023-05-22T15:30:44.322Z,59.30
2023-05-22T15:33:17.133Z,58.40
2023-05-22T15:35:49.740Z,57.70
2023-05-22T15:38:22.131Z,58.10
2023-05-22T15:40:54.658Z,56.80
2023-05-22T15:43:27.308Z,57.00
2023-05-22T15:46:00.187Z,56.20
2023-05-22T15:48:35.146Z,56.10
2023-05-22T15:51:09.842Z,57.50
2023-05-22T15:53:41.968Z,57.40
2023-05-22T15:56:14.157Z,58.90
2023-05-22T15:58:46.484Z,58.20
2023-05-22T16:01:18.811Z,58.40
2023-05-22T16:03:51.498Z,57.10
2023-05-22T16:06:24.220Z,58.10
2023-05-22T16:08:56.337Z,58.80
2023-05-22T16:11:28.738Z,59.10
2023-05-22T16:14:01.466Z,57.90
2023-05-22T16:16:33.762Z,58.00
2023-05-22T16:19:06.096Z,58.40
2023-05-22T16:21:38.755Z,58.40
2023-05-22T16:24:11.385Z,58.20
2023-05-22T16:26:43.502Z,58.70
2023-05-22T16:29:18.015Z,59.30
2023-05-22T16:31:50.209Z,59.60
2023-05-22T16:34:22.393Z,59.50
2023-05-22T16:36:54.529Z,59.50
2023-05-22T16:39:28.179Z,58.00
2023-05-22T16:42:01.207Z,57.90
2023-05-22T16:44:33.424Z,57.80
2023-05-22T16:47:05.974Z,56.50
2023-05-22T16:49:41.762Z,55.50
2023-05-22T16:54:50.961Z,55.70
2023-05-22T16:57:23.399Z,56.30
2023-05-22T16:59:57.714Z,56.70
2023-05-22T17:02:30.279Z,57.40
2023-05-22T17:05:02.533Z,58.00
2023-05-22T17:07:34.672Z,61.00
2023-05-22T17:10:07.462Z,62.00
2023-05-22T17:12:39.576Z,63.60
2023-05-22T17:15:12.287Z,64.70
2023-05-22T17:17:44.685Z,66.60
2023-05-22T17:20:17.423Z,66.60
2023-05-22T17:22:49.582Z,67.50
2023-05-22T17:25:22.281Z,69.20
2023-05-22T17:27:54.631Z,69.00
2023-05-22T17:30:26.799Z,69.30
2023-05-22T17:32:59.172Z,69.10
2023-05-22T17:35:31.338Z,69.10
2023-05-22T17:38:03.597Z,68.10
2023-05-22T17:40:44.815Z,67.80
2023-05-22T17:43:21.558Z,67.90
2023-05-22T17:45:54.607Z,68.00
2023-05-22T17:48:27.386Z,68.40
2023-05-22T17:50:59.738Z,68.40
2023-05-22T17:53:35.680Z,69.00
2023-05-22T17:56:09.514Z,70.90
2023-05-22T17:58:41.720Z,73.20
2023-05-22T18:01:13.879Z,73.20
2023-05-22T18:03:47.320Z,72.80
2023-05-22T18:06:21.077Z,71.80
2023-05-22T18:08:55.925Z,71.60
2023-05-22T18:11:28.162Z,72.80
2023-05-22T18:14:00.340Z,72.40
2023-05-22T18:16:32.543Z,72.50
2023-05-22T18:19:05.423Z,73.00
2023-05-22T18:21:37.713Z,74.10
2023-05-22T18:24:09.895Z,74.40
2023-05-22T18:26:42.253Z,75.20
2023-05-22T18:29:14.484Z,75.10
2023-05-22T18:31:47.035Z,74.80
2023-05-22T18:34:19.498Z,74.80
2023-05-22T18:36:52.964Z,75.70
2023-05-22T18:39:25.122Z,76.00
2023-05-22T18:41:58.716Z,76.30
2023-05-22T18:44:31.145Z,76.40
2023-05-22T18:47:03.455Z,77.70
2023-05-22T18:49:36.391Z,78.30
2023-05-22T18:52:08.590Z,78.90
2023-05-22T18:54:41.119Z,79.70
2023-05-22T18:57:13.334Z,80.90
2023-05-22T18:59:46.307Z,81.90
2023-05-22T19:02:21.467Z,82.20
2023-05-22T19:04:53.809Z,82.70
2023-05-22T19:07:26.166Z,83.00
2023-05-22T19:09:58.695Z,83.40
2023-05-22T19:12:31.957Z,83.20
2023-05-22T19:15:05.602Z,83.40
2023-05-22T19:17:37.973Z,83.90
2023-05-22T19:20:11.204Z,84.00
2023-05-22T19:22:43.481Z,84.20
2023-05-22T19:25:16.295Z,84.40
2023-05-22T19:27:48.933Z,84.20
2023-05-22T19:30:22.113Z,84.80
2023-05-22T19:32:56.133Z,85.60
2023-05-22T19:35:28.348Z,85.60
2023-05-22T19:38:00.575Z,85.70
2023-05-22T19:40:32.701Z,86.00
2023-05-22T19:43:05.255Z,85.90
2023-05-22T19:45:37.439Z,85.90
2023-05-22T19:48:09.691Z,86.20
2023-05-22T19:50:42.175Z,86.00
2023-05-22T19:53:15.014Z,85.70
2023-05-22T19:55:47.774Z,85.40
2023-05-22T19:58:20.212Z,85.30
2023-05-22T20:00:53.051Z,85.00
2023-05-22T20:03:26.528Z,85.40
2023-05-22T20:05:59.231Z,85.70
2023-05-22T20:08:31.522Z,88.10
2023-05-22T20:11:03.885Z,86.50
2023-05-22T20:13:36.587Z,86.90
2023-05-22T20:16:12.043Z,86.60
2023-05-22T20:18:44.981Z,86.70
2023-05-22T20:21:18.481Z,86.80
2023-05-22T20:23:51.518Z,87.00
2023-05-22T20:26:24.032Z,87.20
2023-05-22T20:28:56.715Z,87.40
2023-05-22T20:31:31.803Z,87.90
2023-05-22T20:34:05.137Z,88.60
2023-05-22T20:36:39.086Z,89.00
2023-05-22T20:39:12.040Z,89.40
2023-05-22T20:41:44.702Z,89.80
2023-05-22T20:44:24.932Z,89.70
2023-05-22T20:46:57.372Z,90.00
2023-05-22T20:49:30.127Z,90.60
2023-05-22T20:52:03.292Z,91.00
2023-05-22T20:54:35.898Z,91.70
2023-05-22T20:57:08.053Z,92.00
2023-05-22T20:59:41.057Z,92.00
2023-05-22T21:02:13.592Z,92.50
2023-05-22T21:04:45.984Z,92.80
2023-05-22T21:07:18.413Z,93.30
2023-05-22T21:09:50.686Z,93.80
2023-05-22T21:12:22.889Z,94.00
2023-05-22T21:14:55.280Z,93.90
2023-05-22T21:17:27.506Z,94.00
2023-05-22T21:19:59.799Z,94.50
2023-05-22T21:22:31.947Z,95.30
2023-05-22T21:25:04.325Z,95.70
2023-05-22T21:27:36.512Z,96.40
2023-05-22T21:30:14.597Z,97.30
2023-05-22T21:32:47.191Z,98.20
2023-05-22T21:35:19.369Z,98.90
2023-05-22T21:37:52.988Z,99.50
2023-05-22T21:40:26.881Z,99.90
2023-05-22T21:42:59.039Z,99.90
2023-05-22T21:45:31.529Z,99.90
2023-05-22T21:48:03.712Z,99.90
2023-05-22T21:50:36.565Z,99.90
2023-05-22T21:53:08.682Z,99.90
2023-05-22T21:55:41.301Z,99.90
2023-05-22T21:58:13.959Z,99.90
2023-05-22T22:00:46.330Z,99.90
2023-05-22T22:03:18.521Z,99.90
2023-05-22T22:05:50.912Z,99.90
2023-05-22T22:08:23.034Z,99.90
2023-05-22T22:10:55.588Z,99.90
2023-05-22T22:13:27.760Z,99.90
2023-05-22T22:15:59.912Z,99.90
2023-05-22T22:18:33.801Z,99.90
2023-05-22T22:21:06.020Z,99.90
2023-05-22T22:23:38.572Z,99.90
2023-05-22T22:26:12.321Z,99.90
2023-05-22T22:28:45.096Z,99.90
2023-05-22T22:31:17.854Z,99.90
2023-05-22T22:33:50.068Z,99.90
2023-05-22T22:36:23.135Z,99.90
2023-05-22T22:38:55.263Z,99.90
2023-05-22T22:41:28.100Z,99.90
2023-05-22T22:44:00.290Z,99.90
2023-05-22T22:46:32.916Z,99.90
2023-05-22T22:49:05.269Z,99.90
2023-05-22T22:51:37.737Z,99.90
2023-05-22T22:54:10.884Z,99.90
2023-05-22T22:56:43.466Z,99.90
2023-05-22T22:59:16.610Z,99.90
2023-05-22T23:01:48.759Z,99.90
2023-05-22T23:04:21.299Z,99.90
2023-05-22T23:06:53.695Z,99.90
2023-05-22T23:09:26.040Z,99.90
2023-05-22T23:11:58.177Z,99.90
2023-05-22T23:14:30.525Z,99.90
2023-05-22T23:17:02.761Z,99.90
2023-05-22T23:19:34.909Z,99.90
2023-05-22T23:22:08.114Z,99.90
2023-05-22T23:24:40.493Z,99.90
2023-05-22T23:27:12.746Z,99.90
2023-05-22T23:29:45.129Z,99.90
2023-05-22T23:32:17.282Z,99.90
2023-05-22T23:34:49.727Z,99.90
2023-05-22T23:37:21.866Z,99.90
2023-05-22T23:39:54.853Z,99.90
2023-05-22T23:42:27.333Z,99.90
2023-05-22T23:44:59.493Z,99.90
2023-05-22T23:47:31.878Z,99.90
2023-05-22T23:50:05.538Z,99.90
2023-05-22T23:52:38.016Z,99.90
2023-05-22T23:55:10.260Z,99.90
2023-05-22T23:57:42.447Z,99.90
